sensor_id;sensor_type;location;lat;lon;timestamp;pressure;altitude;pressure_sealevel;temperature;humidity
36630;BME280;36256;42.154;23.002;2023-02-28T00:01:25;97637.06;;;10.45;100.00
36630;BME280;36256;42.154;23.002;2023-02-28T00:03:53;97632.31;;;10.42;100.00
36630;BME280;36256;42.154;23.002;2023-02-28T00:06:20;97640.06;;;10.38;100.00
36630;BME280;36256;42.154;23.002;2023-02-28T00:08:47;97644.19;;;10.34;100.00
36630;BME280;36256;42.154;23.002;2023-02-28T00:11:15;97640.72;;;10.42;100.00
36630;BME280;36256;42.154;23.002;2023-02-28T00:13:45;97640.28;;;10.44;100.00
36630;BME280;36256;42.154;23.002;2023-02-28T00:16:20;97652.53;;;10.50;100.00
36630;BME280;36256;42.154;23.002;2023-02-28T00:18:47;97643.69;;;10.51;100.00
36630;BME280;36256;42.154;23.002;2023-02-28T00:21:16;97647.63;;;10.54;100.00
36630;BME280;36256;42.154;23.002;2023-02-28T00:23:43;97655.78;;;10.48;100.00
36630;BME280;36256;42.154;23.002;2023-02-28T00:26:10;97646.16;;;10.49;100.00
36630;BME280;36256;42.154;23.002;2023-02-28T00:28:37;97643.53;;;10.42;100.00
36630;BME280;36256;42.154;23.002;2023-02-28T00:31:03;97647.94;;;10.43;100.00
36630;BME280;36256;42.154;23.002;2023-02-28T00:33:31;97640.06;;;10.38;100.00
36630;BME280;36256;42.154;23.002;2023-02-28T00:36:08;97644.97;;;10.34;100.00
36630;BME280;36256;42.154;23.002;2023-02-28T00:38:37;97633.28;;;10.23;100.00
36630;BME280;36256;42.154;23.002;2023-02-28T00:41:05;97650.59;;;10.34;100.00
36630;BME280;36256;42.154;23.002;2023-02-28T00:43:33;97646.13;;;10.37;100.00
36630;BME280;36256;42.154;23.002;2023-02-28T00:46:01;97636.41;;;10.25;100.00
36630;BME280;36256;42.154;23.002;2023-02-28T00:48:28;97647.09;;;10.30;100.00
36630;BME280;36256;42.154;23.002;2023-02-28T00:50:54;97650.09;;;10.23;100.00
36630;BME280;36256;42.154;23.002;2023-02-28T00:53:21;97651.19;;;10.13;100.00
36630;BME280;36256;42.154;23.002;2023-02-28T00:55:49;97654.50;;;10.08;100.00
36630;BME280;36256;42.154;23.002;2023-02-28T00:58:16;97645.72;;;10.06;100.00
36630;BME280;36256;42.154;23.002;2023-02-28T01:00:43;97635.41;;;10.03;100.00
36630;BME280;36256;42.154;23.002;2023-02-28T01:03:09;97642.94;;;10.06;100.00
36630;BME280;36256;42.154;23.002;2023-02-28T01:05:36;97646.97;;;10.05;100.00
36630;BME280;36256;42.154;23.002;2023-02-28T01:08:03;97646.53;;;10.06;100.00
36630;BME280;36256;42.154;23.002;2023-02-28T01:10:30;97651.56;;;9.99;100.00
36630;BME280;36256;42.154;23.002;2023-02-28T01:12:57;97649.50;;;9.99;100.00
36630;BME280;36256;42.154;23.002;2023-02-28T01:15:24;97652.31;;;9.99;100.00
36630;BME280;36256;42.154;23.002;2023-02-28T01:17:51;97642.09;;;9.93;100.00
36630;BME280;36256;42.154;23.002;2023-02-28T01:20:18;97642.97;;;9.90;100.00
36630;BME280;36256;42.154;23.002;2023-02-28T01:22:44;97620.91;;;9.76;100.00
36630;BME280;36256;42.154;23.002;2023-02-28T01:25:11;97646.31;;;9.85;100.00
36630;BME280;36256;42.154;23.002;2023-02-28T01:27:38;97646.31;;;9.85;100.00
36630;BME280;36256;42.154;23.002;2023-02-28T01:30:09;97640.00;;;9.81;100.00
36630;BME280;36256;42.154;23.002;2023-02-28T01:32:36;97636.97;;;9.75;100.00
36630;BME280;36256;42.154;23.002;2023-02-28T01:35:04;97637.16;;;9.68;100.00
36630;BME280;36256;42.154;23.002;2023-02-28T01:37:31;97634.88;;;9.63;100.00
36630;BME280;36256;42.154;23.002;2023-02-28T01:39:57;97638.56;;;9.60;100.00
36630;BME280;36256;42.154;23.002;2023-02-28T01:42:24;97633.94;;;9.54;100.00
36630;BME280;36256;42.154;23.002;2023-02-28T01:44:59;97632.00;;;9.50;100.00
36630;BME280;36256;42.154;23.002;2023-02-28T01:47:30;97636.19;;;9.42;100.00
36630;BME280;36256;42.154;23.002;2023-02-28T01:49:58;97635.59;;;9.35;100.00
36630;BME280;36256;42.154;23.002;2023-02-28T01:52:27;97630.59;;;9.26;100.00
36630;BME280;36256;42.154;23.002;2023-02-28T01:54:56;97628.88;;;9.16;100.00
36630;BME280;36256;42.154;23.002;2023-02-28T01:57:34;97635.69;;;9.15;100.00
36630;BME280;36256;42.154;23.002;2023-02-28T02:00:09;97624.03;;;9.17;100.00
36630;BME280;36256;42.154;23.002;2023-02-28T02:02:37;97638.13;;;9.13;100.00
36630;BME280;36256;42.154;23.002;2023-02-28T02:05:09;97634.47;;;9.16;100.00
36630;BME280;36256;42.154;23.002;2023-02-28T02:07:38;97638.47;;;9.15;100.00
36630;BME280;36256;42.154;23.002;2023-02-28T02:10:14;97652.97;;;9.10;100.00
36630;BME280;36256;42.154;23.002;2023-02-28T02:15:42;97653.88;;;9.07;100.00
36630;BME280;36256;42.154;23.002;2023-02-28T02:18:22;97651.41;;;9.09;100.00
36630;BME280;36256;42.154;23.002;2023-02-28T02:26:59;97654.03;;;9.00;100.00
36630;BME280;36256;42.154;23.002;2023-02-28T02:32:49;97643.88;;;8.90;100.00
36630;BME280;36256;42.154;23.002;2023-02-28T02:40:46;97674.91;;;8.96;100.00
36630;BME280;36256;42.154;23.002;2023-02-28T02:43:20;97674.31;;;8.88;100.00
36630;BME280;36256;42.154;23.002;2023-02-28T02:45:56;97669.41;;;8.92;100.00
36630;BME280;36256;42.154;23.002;2023-02-28T02:48:29;97673.34;;;8.95;100.00
36630;BME280;36256;42.154;23.002;2023-02-28T02:51:01;97658.22;;;8.92;100.00
36630;BME280;36256;42.154;23.002;2023-02-28T02:54:38;97671.69;;;8.97;100.00
36630;BME280;36256;42.154;23.002;2023-02-28T02:56:33;97672.41;;;9.01;100.00
36630;BME280;36256;42.154;23.002;2023-02-28T02:59:04;97659.06;;;8.89;100.00
36630;BME280;36256;42.154;23.002;2023-02-28T03:01:34;97679.56;;;9.02;100.00
36630;BME280;36256;42.154;23.002;2023-02-28T03:04:04;97682.00;;;9.00;100.00
36630;BME280;36256;42.154;23.002;2023-02-28T03:06:32;97692.25;;;9.07;100.00
36630;BME280;36256;42.154;23.002;2023-02-28T03:09:00;97693.91;;;9.04;100.00
36630;BME280;36256;42.154;23.002;2023-02-28T03:11:26;97697.25;;;8.99;100.00
36630;BME280;36256;42.154;23.002;2023-02-28T03:22:25;97705.41;;;8.74;100.00
36630;BME280;36256;42.154;23.002;2023-02-28T03:28:00;97722.81;;;8.62;100.00
36630;BME280;36256;42.154;23.002;2023-02-28T03:30:46;97713.22;;;8.63;100.00
36630;BME280;36256;42.154;23.002;2023-02-28T03:33:21;97720.91;;;8.59;100.00
36630;BME280;36256;42.154;23.002;2023-02-28T03:35:55;97711.09;;;8.51;100.00
36630;BME280;36256;42.154;23.002;2023-02-28T03:38:45;97713.88;;;8.51;100.00
36630;BME280;36256;42.154;23.002;2023-02-28T03:41:17;97713.13;;;8.47;100.00
36630;BME280;36256;42.154;23.002;2023-02-28T03:43:53;97714.50;;;8.39;100.00
36630;BME280;36256;42.154;23.002;2023-02-28T03:46:25;97707.34;;;8.38;100.00
36630;BME280;36256;42.154;23.002;2023-02-28T03:49:08;97711.78;;;8.35;100.00
36630;BME280;36256;42.154;23.002;2023-02-28T03:51:36;97709.16;;;8.25;100.00
36630;BME280;36256;42.154;23.002;2023-02-28T03:54:10;97708.53;;;8.17;100.00
36630;BME280;36256;42.154;23.002;2023-02-28T03:56:45;97722.50;;;8.17;100.00
36630;BME280;36256;42.154;23.002;2023-02-28T03:59:18;97721.19;;;8.22;100.00
36630;BME280;36256;42.154;23.002;2023-02-28T04:01:48;97727.56;;;8.22;100.00
36630;BME280;36256;42.154;23.002;2023-02-28T04:04:16;97699.09;;;8.08;100.00
36630;BME280;36256;42.154;23.002;2023-02-28T04:06:44;97726.13;;;8.14;100.00
36630;BME280;36256;42.154;23.002;2023-02-28T04:09:13;97715.16;;;8.04;100.00
36630;BME280;36256;42.154;23.002;2023-02-28T04:11:42;97722.69;;;8.07;100.00
36630;BME280;36256;42.154;23.002;2023-02-28T04:14:11;97721.09;;;8.06;100.00
36630;BME280;36256;42.154;23.002;2023-02-28T04:16:40;97732.63;;;8.08;100.00
36630;BME280;36256;42.154;23.002;2023-02-28T04:19:08;97716.06;;;7.97;100.00
36630;BME280;36256;42.154;23.002;2023-02-28T04:21:47;97736.19;;;7.88;100.00
36630;BME280;36256;42.154;23.002;2023-02-28T04:24:22;97717.66;;;7.75;100.00
36630;BME280;36256;42.154;23.002;2023-02-28T04:26:51;97734.44;;;7.75;100.00
36630;BME280;36256;42.154;23.002;2023-02-28T04:29:23;97730.16;;;7.67;100.00
36630;BME280;36256;42.154;23.002;2023-02-28T04:31:51;97730.94;;;7.67;100.00
36630;BME280;36256;42.154;23.002;2023-02-28T04:34:20;97728.41;;;7.53;100.00
36630;BME280;36256;42.154;23.002;2023-02-28T04:36:48;97734.47;;;7.48;100.00
36630;BME280;36256;42.154;23.002;2023-02-28T04:39:37;97728.88;;;7.48;100.00
36630;BME280;36256;42.154;23.002;2023-02-28T04:42:03;97730.56;;;7.42;100.00
36630;BME280;36256;42.154;23.002;2023-02-28T04:44:30;97738.66;;;7.37;100.00
36630;BME280;36256;42.154;23.002;2023-02-28T04:46:57;97739.53;;;7.30;100.00
36630;BME280;36256;42.154;23.002;2023-02-28T04:49:24;97730.91;;;7.21;100.00
36630;BME280;36256;42.154;23.002;2023-02-28T04:51:51;97737.22;;;7.25;100.00
36630;BME280;36256;42.154;23.002;2023-02-28T04:54:19;97736.88;;;7.46;100.00
36630;BME280;36256;42.154;23.002;2023-02-28T04:56:46;97724.78;;;7.30;100.00
36630;BME280;36256;42.154;23.002;2023-02-28T04:59:16;97746.69;;;7.31;100.00
36630;BME280;36256;42.154;23.002;2023-02-28T05:01:48;97753.13;;;7.28;100.00
36630;BME280;36256;42.154;23.002;2023-02-28T05:04:15;97762.53;;;7.38;100.00
36630;BME280;36256;42.154;23.002;2023-02-28T05:06:42;97758.84;;;7.44;100.00
36630;BME280;36256;42.154;23.002;2023-02-28T05:09:09;97758.38;;;7.49;100.00
36630;BME280;36256;42.154;23.002;2023-02-28T05:11:39;97762.38;;;7.48;100.00
36630;BME280;36256;42.154;23.002;2023-02-28T05:14:15;97768.50;;;7.40;100.00
36630;BME280;36256;42.154;23.002;2023-02-28T05:16:42;97766.72;;;7.26;100.00
36630;BME280;36256;42.154;23.002;2023-02-28T05:19:09;97776.38;;;7.18;100.00
36630;BME280;36256;42.154;23.002;2023-02-28T05:21:36;97787.16;;;7.16;100.00
36630;BME280;36256;42.154;23.002;2023-02-28T05:24:06;97782.34;;;7.20;100.00
36630;BME280;36256;42.154;23.002;2023-02-28T05:26:38;97774.81;;;7.17;100.00
36630;BME280;36256;42.154;23.002;2023-02-28T05:29:05;97777.97;;;7.19;100.00
36630;BME280;36256;42.154;23.002;2023-02-28T05:31:32;97793.69;;;7.36;100.00
36630;BME280;36256;42.154;23.002;2023-02-28T05:33:59;97791.03;;;7.52;100.00
36630;BME280;36256;42.154;23.002;2023-02-28T05:36:26;97795.69;;;7.62;100.00
36630;BME280;36256;42.154;23.002;2023-02-28T05:38:52;97804.16;;;7.55;100.00
36630;BME280;36256;42.154;23.002;2023-02-28T05:41:20;97792.78;;;7.43;100.00
36630;BME280;36256;42.154;23.002;2023-02-28T05:43:47;97798.41;;;7.39;100.00
36630;BME280;36256;42.154;23.002;2023-02-28T05:46:15;97807.56;;;7.40;100.00
36630;BME280;36256;42.154;23.002;2023-02-28T05:48:46;97811.16;;;7.40;100.00
36630;BME280;36256;42.154;23.002;2023-02-28T05:51:15;97812.91;;;7.31;100.00
36630;BME280;36256;42.154;23.002;2023-02-28T05:53:42;97811.53;;;7.42;100.00
36630;BME280;36256;42.154;23.002;2023-02-28T05:56:09;97820.59;;;7.50;100.00
36630;BME280;36256;42.154;23.002;2023-02-28T05:58:36;97820.56;;;7.53;100.00
36630;BME280;36256;42.154;23.002;2023-02-28T06:03:50;97822.81;;;7.62;100.00
36630;BME280;36256;42.154;23.002;2023-02-28T06:06:17;97825.09;;;7.70;100.00
36630;BME280;36256;42.154;23.002;2023-02-28T06:08:44;97827.16;;;7.66;100.00
36630;BME280;36256;42.154;23.002;2023-02-28T06:11:11;97829.94;;;7.66;100.00
36630;BME280;36256;42.154;23.002;2023-02-28T06:13:38;97833.69;;;7.79;100.00
36630;BME280;36256;42.154;23.002;2023-02-28T06:16:05;97834.44;;;7.83;100.00
36630;BME280;36256;42.154;23.002;2023-02-28T06:18:32;97835.06;;;7.94;100.00
36630;BME280;36256;42.154;23.002;2023-02-28T06:20:59;97834.97;;;8.02;100.00
36630;BME280;36256;42.154;23.002;2023-02-28T06:23:25;97838.84;;;8.08;100.00
36630;BME280;36256;42.154;23.002;2023-02-28T06:25:52;97834.50;;;8.07;100.00
36630;BME280;36256;42.154;23.002;2023-02-28T06:28:19;97850.88;;;8.05;100.00
36630;BME280;36256;42.154;23.002;2023-02-28T06:30:46;97845.28;;;8.05;100.00
36630;BME280;36256;42.154;23.002;2023-02-28T06:33:13;97847.84;;;7.96;100.00
36630;BME280;36256;42.154;23.002;2023-02-28T06:35:39;97843.03;;;7.96;100.00
36630;BME280;36256;42.154;23.002;2023-02-28T06:38:06;97848.47;;;8.07;100.00
36630;BME280;36256;42.154;23.002;2023-02-28T06:40:33;97850.81;;;8.08;100.00
36630;BME280;36256;42.154;23.002;2023-02-28T06:43:02;97843.41;;;8.21;100.00
36630;BME280;36256;42.154;23.002;2023-02-28T06:45:29;97842.63;;;8.21;100.00
36630;BME280;36256;42.154;23.002;2023-02-28T06:47:56;97846.41;;;8.11;100.00
36630;BME280;36256;42.154;23.002;2023-02-28T06:50:23;97857.41;;;8.21;100.00
36630;BME280;36256;42.154;23.002;2023-02-28T06:52:49;97852.75;;;8.38;100.00
36630;BME280;36256;42.154;23.002;2023-02-28T06:55:20;97860.50;;;8.50;100.00
36630;BME280;36256;42.154;23.002;2023-02-28T06:57:47;97857.97;;;8.59;100.00
36630;BME280;36256;42.154;23.002;2023-02-28T07:00:14;97859.16;;;8.58;100.00
36630;BME280;36256;42.154;23.002;2023-02-28T07:02:41;97856.97;;;8.69;100.00
36630;BME280;36256;42.154;23.002;2023-02-28T07:05:08;97839.34;;;8.72;100.00
36630;BME280;36256;42.154;23.002;2023-02-28T07:07:35;97852.75;;;8.81;100.00
36630;BME280;36256;42.154;23.002;2023-02-28T07:10:04;97850.88;;;8.74;100.00
36630;BME280;36256;42.154;23.002;2023-02-28T07:12:31;97844.84;;;8.76;100.00
36630;BME280;36256;42.154;23.002;2023-02-28T07:14:58;97837.63;;;8.78;100.00
36630;BME280;36256;42.154;23.002;2023-02-28T07:17:25;97845.28;;;8.74;100.00
36630;BME280;36256;42.154;23.002;2023-02-28T07:19:52;97846.50;;;8.73;100.00
36630;BME280;36256;42.154;23.002;2023-02-28T07:22:19;97850.53;;;8.72;100.00
36630;BME280;36256;42.154;23.002;2023-02-28T07:24:46;97839.34;;;8.72;100.00
36630;BME280;36256;42.154;23.002;2023-02-28T07:27:12;97845.50;;;8.83;100.00
36630;BME280;36256;42.154;23.002;2023-02-28T07:29:52;97843.94;;;8.82;100.00
36630;BME280;36256;42.154;23.002;2023-02-28T07:32:19;97842.22;;;8.88;100.00
36630;BME280;36256;42.154;23.002;2023-02-28T07:34:46;97844.66;;;8.86;100.00
36630;BME280;36256;42.154;23.002;2023-02-28T07:37:13;97844.28;;;8.84;100.00
36630;BME280;36256;42.154;23.002;2023-02-28T07:39:40;97824.69;;;8.84;100.00
36630;BME280;36256;42.154;23.002;2023-02-28T07:42:10;97838.97;;;8.90;100.00
36630;BME280;36256;42.154;23.002;2023-02-28T07:44:39;97837.47;;;8.85;100.00
36630;BME280;36256;42.154;23.002;2023-02-28T07:47:08;97840.69;;;8.84;100.00
36630;BME280;36256;42.154;23.002;2023-02-28T07:49:37;97840.13;;;8.92;100.00
36630;BME280;36256;42.154;23.002;2023-02-28T07:52:05;97851.47;;;9.05;100.00
36630;BME280;36256;42.154;23.002;2023-02-28T07:54:33;97843.72;;;9.12;100.00
36630;BME280;36256;42.154;23.002;2023-02-28T07:57:00;97843.50;;;9.03;100.00
36630;BME280;36256;42.154;23.002;2023-02-28T07:59:27;97850.63;;;9.08;100.00
36630;BME280;36256;42.154;23.002;2023-02-28T08:01:57;97837.75;;;9.10;100.00
36630;BME280;36256;42.154;23.002;2023-02-28T08:04:26;97821.97;;;9.00;100.00
36630;BME280;36256;42.154;23.002;2023-02-28T08:06:52;97837.69;;;9.14;100.00
36630;BME280;36256;42.154;23.002;2023-02-28T08:09:19;97826.72;;;9.03;100.00
36630;BME280;36256;42.154;23.002;2023-02-28T08:11:46;97844.09;;;9.14;100.00
36630;BME280;36256;42.154;23.002;2023-02-28T08:14:13;97821.97;;;9.00;100.00
36630;BME280;36256;42.154;23.002;2023-02-28T08:16:40;97846.38;;;9.19;100.00
36630;BME280;36256;42.154;23.002;2023-02-28T08:19:06;97843.47;;;9.23;100.00
36630;BME280;36256;42.154;23.002;2023-02-28T08:21:33;97840.91;;;9.12;100.00
36630;BME280;36256;42.154;23.002;2023-02-28T08:24:00;97834.31;;;9.22;100.00
36630;BME280;36256;42.154;23.002;2023-02-28T08:26:26;97834.31;;;9.22;100.00
36630;BME280;36256;42.154;23.002;2023-02-28T08:28:53;97831.88;;;9.24;100.00
36630;BME280;36256;42.154;23.002;2023-02-28T08:31:22;97830.72;;;9.22;100.00
36630;BME280;36256;42.154;23.002;2023-02-28T08:33:49;97838.69;;;9.23;100.00
36630;BME280;36256;42.154;23.002;2023-02-28T08:36:19;97833.44;;;9.25;100.00
36630;BME280;36256;42.154;23.002;2023-02-28T08:38:46;97829.25;;;9.33;100.00
36630;BME280;36256;42.154;23.002;2023-02-28T08:41:12;97829.56;;;9.19;100.00
36630;BME280;36256;42.154;23.002;2023-02-28T08:43:40;97828.00;;;9.18;100.00
36630;BME280;36256;42.154;23.002;2023-02-28T08:46:07;97835.03;;;9.26;100.00
36630;BME280;36256;42.154;23.002;2023-02-28T08:48:35;97823.97;;;9.19;100.00
36630;BME280;36256;42.154;23.002;2023-02-28T08:51:06;97832.09;;;9.14;100.00
36630;BME280;36256;42.154;23.002;2023-02-28T08:53:36;97838.28;;;9.25;100.00
36630;BME280;36256;42.154;23.002;2023-02-28T08:56:09;97831.56;;;9.38;100.00
36630;BME280;36256;42.154;23.002;2023-02-28T08:58:36;97825.84;;;9.62;100.00
36630;BME280;36256;42.154;23.002;2023-02-28T09:01:29;97829.19;;;9.73;100.00
36630;BME280;36256;42.154;23.002;2023-02-28T09:03:57;97825.00;;;9.81;100.00
36630;BME280;36256;42.154;23.002;2023-02-28T09:06:26;97830.09;;;10.02;100.00
36630;BME280;36256;42.154;23.002;2023-02-28T09:09:05;97816.41;;;10.04;100.00
36630;BME280;36256;42.154;23.002;2023-02-28T09:15:28;97820.09;;;10.33;100.00
36630;BME280;36256;42.154;23.002;2023-02-28T09:17:55;97811.41;;;10.44;100.00
36630;BME280;36256;42.154;23.002;2023-02-28T09:20:21;97809.06;;;10.42;100.00
36630;BME280;36256;42.154;23.002;2023-02-28T09:22:48;97818.00;;;10.53;100.00
36630;BME280;36256;42.154;23.002;2023-02-28T09:25:15;97815.59;;;10.68;100.00
36630;BME280;36256;42.154;23.002;2023-02-28T09:27:41;97805.75;;;10.76;100.00
36630;BME280;36256;42.154;23.002;2023-02-28T09:30:09;97813.03;;;10.73;100.00
36630;BME280;36256;42.154;23.002;2023-02-28T09:32:35;97802.19;;;10.88;100.00
36630;BME280;36256;42.154;23.002;2023-02-28T09:35:02;97803.28;;;11.07;100.00
36630;BME280;36256;42.154;23.002;2023-02-28T09:37:29;97801.41;;;11.29;100.00
36630;BME280;36256;42.154;23.002;2023-02-28T09:39:57;97790.69;;;11.77;100.00
36630;BME280;36256;42.154;23.002;2023-02-28T09:42:31;97796.59;;;12.17;100.00
36630;BME280;36256;42.154;23.002;2023-02-28T09:45:00;97797.53;;;12.48;100.00
36630;BME280;36256;42.154;23.002;2023-02-28T09:47:34;97798.47;;;12.80;100.00
36630;BME280;36256;42.154;23.002;2023-02-28T09:50:12;97792.25;;;12.85;100.00
36630;BME280;36256;42.154;23.002;2023-02-28T09:52:45;97793.88;;;12.73;98.80
36630;BME280;36256;42.154;23.002;2023-02-28T09:57:41;97783.75;;;12.41;100.00
36630;BME280;36256;42.154;23.002;2023-02-28T10:00:15;97770.47;;;12.29;100.00
36630;BME280;36256;42.154;23.002;2023-02-28T10:05:41;97761.94;;;12.20;100.00
36630;BME280;36256;42.154;23.002;2023-02-28T10:10:58;97753.63;;;12.51;100.00
36630;BME280;36256;42.154;23.002;2023-02-28T10:16:26;97753.66;;;12.73;100.00
36630;BME280;36256;42.154;23.002;2023-02-28T10:19:06;97743.47;;;12.88;100.00
36630;BME280;36256;42.154;23.002;2023-02-28T10:21:59;97733.13;;;13.06;100.00
36630;BME280;36256;42.154;23.002;2023-02-28T10:24:32;97744.25;;;13.10;100.00
36630;BME280;36256;42.154;23.002;2023-02-28T10:27:19;97738.81;;;13.15;100.00
36630;BME280;36256;42.154;23.002;2023-02-28T10:29:51;97728.13;;;13.41;100.00
36630;BME280;36256;42.154;23.002;2023-02-28T10:32:21;97724.81;;;13.64;98.17
36630;BME280;36256;42.154;23.002;2023-02-28T10:34:52;97717.94;;;13.74;96.78
36630;BME280;36256;42.154;23.002;2023-02-28T10:41:14;97711.19;;;13.72;95.64
36630;BME280;36256;42.154;23.002;2023-02-28T10:43:42;97693.84;;;13.82;96.15
36630;BME280;36256;42.154;23.002;2023-02-28T10:48:47;97695.13;;;13.99;96.22
36630;BME280;36256;42.154;23.002;2023-02-28T10:51:18;97692.31;;;13.99;96.34
36630;BME280;36256;42.154;23.002;2023-02-28T10:53:50;97678.66;;;14.07;97.59
36630;BME280;36256;42.154;23.002;2023-02-28T10:56:28;97674.16;;;14.18;97.13
36630;BME280;36256;42.154;23.002;2023-02-28T10:58:57;97671.97;;;14.23;93.85
36630;BME280;36256;42.154;23.002;2023-02-28T11:03:57;97663.63;;;14.10;95.12
36630;BME280;36256;42.154;23.002;2023-02-28T11:06:33;97655.31;;;14.15;93.93
36630;BME280;36256;42.154;23.002;2023-02-28T11:09:25;97658.47;;;14.17;94.30
36630;BME280;36256;42.154;23.002;2023-02-28T11:11:53;97653.44;;;14.22;92.84
36630;BME280;36256;42.154;23.002;2023-02-28T11:14:23;97652.25;;;14.32;92.22
36630;BME280;36256;42.154;23.002;2023-02-28T11:16:51;97649.72;;;14.43;92.41
36630;BME280;36256;42.154;23.002;2023-02-28T11:19:32;97647.81;;;14.58;92.09
36630;BME280;36256;42.154;23.002;2023-02-28T11:22:03;97642.16;;;14.67;92.66
36630;BME280;36256;42.154;23.002;2023-02-28T11:24:35;97635.72;;;14.75;90.90
36630;BME280;36256;42.154;23.002;2023-02-28T11:27:03;97639.28;;;14.94;89.41
36630;BME280;36256;42.154;23.002;2023-02-28T11:29:32;97639.16;;;14.88;87.27
36630;BME280;36256;42.154;23.002;2023-02-28T11:34:36;97626.19;;;14.55;89.45
36630;BME280;36256;42.154;23.002;2023-02-28T11:37:05;97633.50;;;14.79;89.80
36630;BME280;36256;42.154;23.002;2023-02-28T11:39:37;97625.16;;;14.85;89.79
36630;BME280;36256;42.154;23.002;2023-02-28T11:51:51;97611.72;;;14.71;86.02
36630;BME280;36256;42.154;23.002;2023-02-28T11:54:40;97617.81;;;14.78;86.32
36630;BME280;36256;42.154;23.002;2023-02-28T12:05:34;97586.06;;;15.34;85.33
36630;BME280;36256;42.154;23.002;2023-02-28T12:25:55;97571.00;;;15.28;88.13
36630;BME280;36256;42.154;23.002;2023-02-28T12:32:31;97578.56;;;15.55;84.85
36630;BME280;36256;42.154;23.002;2023-02-28T12:35:06;97569.00;;;15.52;78.34
36630;BME280;36256;42.154;23.002;2023-02-28T12:37:57;97566.66;;;15.51;79.20
36630;BME280;36256;42.154;23.002;2023-02-28T12:40:29;97567.44;;;15.51;79.02
36630;BME280;36256;42.154;23.002;2023-02-28T12:43:05;97567.75;;;15.53;78.01
36630;BME280;36256;42.154;23.002;2023-02-28T12:45:57;97561.19;;;15.47;77.68
36630;BME280;36256;42.154;23.002;2023-02-28T12:48:30;97564.03;;;15.38;77.17
36630;BME280;36256;42.154;23.002;2023-02-28T12:50:58;97558.72;;;15.31;76.62
36630;BME280;36256;42.154;23.002;2023-02-28T12:56:36;97547.94;;;15.21;79.09
36630;BME280;36256;42.154;23.002;2023-02-28T12:59:19;97553.28;;;15.19;77.63
36630;BME280;36256;42.154;23.002;2023-02-28T13:05:00;97543.00;;;15.07;73.83
36630;BME280;36256;42.154;23.002;2023-02-28T13:17:48;97545.94;;;15.12;77.00
36630;BME280;36256;42.154;23.002;2023-02-28T13:20:28;97548.72;;;15.21;75.50
36630;BME280;36256;42.154;23.002;2023-02-28T13:22:56;97545.94;;;15.12;76.40
36630;BME280;36256;42.154;23.002;2023-02-28T13:28:08;97542.56;;;14.99;78.68
36630;BME280;36256;42.154;23.002;2023-02-28T13:47:48;97537.75;;;14.90;74.74
36630;BME280;36256;42.154;23.002;2023-02-28T13:50:34;97537.84;;;14.96;74.58
36630;BME280;36256;42.154;23.002;2023-02-28T13:55:44;97546.97;;;14.91;75.13
36630;BME280;36256;42.154;23.002;2023-02-28T14:09:37;97548.06;;;14.52;72.51
36630;BME280;36256;42.154;23.002;2023-02-28T14:11:43;97554.31;;;14.56;72.85
36630;BME280;36256;42.154;23.002;2023-02-28T14:17:04;97558.13;;;14.16;75.28
36630;BME280;36256;42.154;23.002;2023-02-28T14:19:34;97554.38;;;14.10;75.45
36630;BME280;36256;42.154;23.002;2023-02-28T14:27:41;97554.38;;;13.92;76.51
36630;BME280;36256;42.154;23.002;2023-02-28T14:35:54;97550.75;;;13.74;77.13
36630;BME280;36256;42.154;23.002;2023-02-28T14:38:27;97554.97;;;13.69;77.59
36630;BME280;36256;42.154;23.002;2023-02-28T14:40:56;97559.69;;;13.81;77.68
36630;BME280;36256;42.154;23.002;2023-02-28T14:43:26;97562.38;;;13.85;77.09
36630;BME280;36256;42.154;23.002;2023-02-28T14:45:56;97554.34;;;13.83;76.87
36630;BME280;36256;42.154;23.002;2023-02-28T14:48:24;97545.59;;;13.81;74.85
36630;BME280;36256;42.154;23.002;2023-02-28T14:50:59;97549.38;;;13.87;77.75
36630;BME280;36256;42.154;23.002;2023-02-28T14:53:35;97545.28;;;13.88;77.88
36630;BME280;36256;42.154;23.002;2023-02-28T14:56:02;97542.78;;;13.90;75.63
36630;BME280;36256;42.154;23.002;2023-02-28T14:58:35;97546.53;;;13.96;75.91
36630;BME280;36256;42.154;23.002;2023-02-28T15:01:24;97543.25;;;13.98;74.73
36630;BME280;36256;42.154;23.002;2023-02-28T15:04:04;97552.97;;;13.97;75.39
36630;BME280;36256;42.154;23.002;2023-02-28T15:06:32;97553.13;;;13.93;75.66
36630;BME280;36256;42.154;23.002;2023-02-28T15:11:35;97551.25;;;13.99;75.06
36630;BME280;36256;42.154;23.002;2023-02-28T15:14:02;97538.38;;;13.80;74.67
36630;BME280;36256;42.154;23.002;2023-02-28T15:16:38;97558.16;;;13.89;75.68
36630;BME280;36256;42.154;23.002;2023-02-28T15:19:14;97554.84;;;13.91;76.74
36630;BME280;36256;42.154;23.002;2023-02-28T15:21:48;97546.84;;;13.89;76.62
36630;BME280;36256;42.154;23.002;2023-02-28T15:24:20;97555.00;;;13.87;77.27
36630;BME280;36256;42.154;23.002;2023-02-28T15:26:53;97560.00;;;13.83;78.71
36630;BME280;36256;42.154;23.002;2023-02-28T15:29:25;97560.47;;;13.82;77.54
36630;BME280;36256;42.154;23.002;2023-02-28T15:32:05;97545.13;;;13.74;78.07
36630;BME280;36256;42.154;23.002;2023-02-28T15:34:36;97567.34;;;13.63;78.82
36630;BME280;36256;42.154;23.002;2023-02-28T15:37:31;97571.56;;;13.58;79.67
36630;BME280;36256;42.154;23.002;2023-02-28T15:40:33;97568.75;;;13.49;79.21
36630;BME280;36256;42.154;23.002;2023-02-28T15:43:16;97581.56;;;13.50;78.95
36630;BME280;36256;42.154;23.002;2023-02-28T15:45:52;97562.31;;;13.49;79.41
36630;BME280;36256;42.154;23.002;2023-02-28T15:50:54;97579.06;;;13.52;77.55
36630;BME280;36256;42.154;23.002;2023-02-28T15:53:24;97583.78;;;13.55;79.98